sensor_id;sensor_type;location;lat;lon;timestamp;temperature;humidity
820;DHT22;392;48.838;2.322;2023-06-22T00:01:18;23.70;36.00
820;DHT22;392;48.838;2.322;2023-06-22T00:03:47;23.80;36.00
820;DHT22;392;48.838;2.322;2023-06-22T00:06:14;23.70;35.30
820;DHT22;392;48.838;2.322;2023-06-22T00:08:42;23.60;36.20
820;DHT22;392;48.838;2.322;2023-06-22T00:11:09;23.50;36.60
820;DHT22;392;48.838;2.322;2023-06-22T00:13:37;23.40;37.40
820;DHT22;392;48.838;2.322;2023-06-22T00:16:05;23.40;37.20
820;DHT22;392;48.838;2.322;2023-06-22T00:18:32;23.50;36.50
820;DHT22;392;48.838;2.322;2023-06-22T00:21:01;23.50;36.80
820;DHT22;392;48.838;2.322;2023-06-22T00:23:28;23.50;36.70
820;DHT22;392;48.838;2.322;2023-06-22T00:25:59;23.60;36.20
820;DHT22;392;48.838;2.322;2023-06-22T00:28:27;23.70;35.40
820;DHT22;392;48.838;2.322;2023-06-22T00:30:54;23.60;35.60
820;DHT22;392;48.838;2.322;2023-06-22T00:33:22;23.50;35.50
820;DHT22;392;48.838;2.322;2023-06-22T00:35:49;23.30;35.90
820;DHT22;392;48.838;2.322;2023-06-22T00:38:19;23.30;36.40
820;DHT22;392;48.838;2.322;2023-06-22T00:40:47;23.20;36.70
820;DHT22;392;48.838;2.322;2023-06-22T00:43:14;23.30;36.70
820;DHT22;392;48.838;2.322;2023-06-22T00:45:42;23.30;36.70
820;DHT22;392;48.838;2.322;2023-06-22T00:48:09;23.40;36.00
820;DHT22;392;48.838;2.322;2023-06-22T00:50:37;23.40;36.00
820;DHT22;392;48.838;2.322;2023-06-22T00:53:06;23.50;35.30
820;DHT22;392;48.838;2.322;2023-06-22T00:55:37;23.60;35.30
820;DHT22;392;48.838;2.322;2023-06-22T00:58:06;23.60;34.90
820;DHT22;392;48.838;2.322;2023-06-22T01:00:36;23.60;35.00
820;DHT22;392;48.838;2.322;2023-06-22T01:03:04;23.60;35.00
820;DHT22;392;48.838;2.322;2023-06-22T01:05:34;23.60;34.70
820;DHT22;392;48.838;2.322;2023-06-22T01:08:12;23.50;34.70
820;DHT22;392;48.838;2.322;2023-06-22T01:10:55;23.50;34.80
820;DHT22;392;48.838;2.322;2023-06-22T01:13:29;23.50;34.80
820;DHT22;392;48.838;2.322;2023-06-22T01:16:02;23.40;34.80
820;DHT22;392;48.838;2.322;2023-06-22T01:18:32;23.40;35.00
820;DHT22;392;48.838;2.322;2023-06-22T01:21:04;23.30;35.50
820;DHT22;392;48.838;2.322;2023-06-22T01:23:49;23.20;35.70
820;DHT22;392;48.838;2.322;2023-06-22T01:26:28;23.20;35.70
820;DHT22;392;48.838;2.322;2023-06-22T01:29:04;23.20;35.80
820;DHT22;392;48.838;2.322;2023-06-22T01:31:34;23.20;35.50
820;DHT22;392;48.838;2.322;2023-06-22T01:34:04;23.20;35.20
820;DHT22;392;48.838;2.322;2023-06-22T01:36:33;23.20;35.30
820;DHT22;392;48.838;2.322;2023-06-22T01:39:02;23.10;35.60
820;DHT22;392;48.838;2.322;2023-06-22T01:41:32;23.10;35.70
820;DHT22;392;48.838;2.322;2023-06-22T01:44:02;23.10;35.50
820;DHT22;392;48.838;2.322;2023-06-22T01:46:32;23.00;35.70
820;DHT22;392;48.838;2.322;2023-06-22T01:49:00;23.00;35.70
820;DHT22;392;48.838;2.322;2023-06-22T01:51:28;23.00;35.70
820;DHT22;392;48.838;2.322;2023-06-22T01:53:58;23.00;35.60
820;DHT22;392;48.838;2.322;2023-06-22T01:56:26;23.00;35.60
820;DHT22;392;48.838;2.322;2023-06-22T02:02:00;23.00;35.40
820;DHT22;392;48.838;2.322;2023-06-22T02:04:34;22.90;35.60
820;DHT22;392;48.838;2.322;2023-06-22T02:07:07;22.90;35.60
820;DHT22;392;48.838;2.322;2023-06-22T02:09:38;22.90;35.60
820;DHT22;392;48.838;2.322;2023-06-22T02:12:10;22.90;35.60
820;DHT22;392;48.838;2.322;2023-06-22T02:14:40;22.80;36.20
820;DHT22;392;48.838;2.322;2023-06-22T02:17:09;22.90;36.00
820;DHT22;392;48.838;2.322;2023-06-22T02:19:37;22.90;35.60
820;DHT22;392;48.838;2.322;2023-06-22T02:22:05;22.90;35.60
820;DHT22;392;48.838;2.322;2023-06-22T02:24:32;22.90;35.60
820;DHT22;392;48.838;2.322;2023-06-22T02:27:00;22.90;35.60
820;DHT22;392;48.838;2.322;2023-06-22T02:29:32;22.90;35.60
820;DHT22;392;48.838;2.322;2023-06-22T02:32:00;22.90;35.60
820;DHT22;392;48.838;2.322;2023-06-22T02:34:28;22.90;35.60
820;DHT22;392;48.838;2.322;2023-06-22T02:36:55;22.90;35.50
820;DHT22;392;48.838;2.322;2023-06-22T02:39:23;22.90;35.60
820;DHT22;392;48.838;2.322;2023-06-22T02:41:52;22.90;35.60
820;DHT22;392;48.838;2.322;2023-06-22T02:44:22;22.90;35.60
820;DHT22;392;48.838;2.322;2023-06-22T02:46:50;22.90;35.30
820;DHT22;392;48.838;2.322;2023-06-22T02:49:19;22.90;35.50
820;DHT22;392;48.838;2.322;2023-06-22T02:51:48;22.90;35.10
820;DHT22;392;48.838;2.322;2023-06-22T02:54:18;22.80;35.10
820;DHT22;392;48.838;2.322;2023-06-22T02:56:48;22.60;35.30
820;DHT22;392;48.838;2.322;2023-06-22T02:59:16;22.60;36.20
820;DHT22;392;48.838;2.322;2023-06-22T03:01:49;22.50;36.40
820;DHT22;392;48.838;2.322;2023-06-22T03:04:26;22.50;37.20
820;DHT22;392;48.838;2.322;2023-06-22T03:06:53;22.40;36.70
820;DHT22;392;48.838;2.322;2023-06-22T03:09:20;22.40;36.70
820;DHT22;392;48.838;2.322;2023-06-22T03:11:48;22.40;36.70
820;DHT22;392;48.838;2.322;2023-06-22T03:14:15;22.40;37.10
820;DHT22;392;48.838;2.322;2023-06-22T03:16:43;22.40;36.90
820;DHT22;392;48.838;2.322;2023-06-22T03:19:11;22.50;36.50
820;DHT22;392;48.838;2.322;2023-06-22T03:21:40;22.50;36.00
820;DHT22;392;48.838;2.322;2023-06-22T03:24:07;22.50;36.00
820;DHT22;392;48.838;2.322;2023-06-22T03:26:35;22.50;36.60
820;DHT22;392;48.838;2.322;2023-06-22T03:29:02;22.50;35.80
820;DHT22;392;48.838;2.322;2023-06-22T03:31:30;22.50;36.10
820;DHT22;392;48.838;2.322;2023-06-22T03:33:58;22.50;36.80
820;DHT22;392;48.838;2.322;2023-06-22T03:36:26;22.50;36.10
820;DHT22;392;48.838;2.322;2023-06-22T03:38:55;22.50;36.10
820;DHT22;392;48.838;2.322;2023-06-22T03:41:23;22.50;36.00
820;DHT22;392;48.838;2.322;2023-06-22T03:43:51;22.50;35.80
820;DHT22;392;48.838;2.322;2023-06-22T03:46:18;22.40;36.20
820;DHT22;392;48.838;2.322;2023-06-22T03:48:46;22.40;37.10
820;DHT22;392;48.838;2.322;2023-06-22T03:51:13;22.30;36.80
820;DHT22;392;48.838;2.322;2023-06-22T03:53:40;22.20;37.00
820;DHT22;392;48.838;2.322;2023-06-22T03:56:10;22.20;37.60
820;DHT22;392;48.838;2.322;2023-06-22T03:58:38;22.30;37.40
820;DHT22;392;48.838;2.322;2023-06-22T04:01:08;22.30;37.10
820;DHT22;392;48.838;2.322;2023-06-22T04:03:37;22.40;37.00
820;DHT22;392;48.838;2.322;2023-06-22T04:06:04;22.40;36.80
820;DHT22;392;48.838;2.322;2023-06-22T04:08:31;22.40;36.70
820;DHT22;392;48.838;2.322;2023-06-22T04:10:59;22.30;36.80
820;DHT22;392;48.838;2.322;2023-06-22T04:13:27;22.30;37.00
820;DHT22;392;48.838;2.322;2023-06-22T04:15:55;22.30;37.60
820;DHT22;392;48.838;2.322;2023-06-22T04:18:22;22.40;37.60
820;DHT22;392;48.838;2.322;2023-06-22T04:20:49;22.40;36.50
820;DHT22;392;48.838;2.322;2023-06-22T04:23:16;22.30;36.50
820;DHT22;392;48.838;2.322;2023-06-22T04:25:44;22.30;36.90
820;DHT22;392;48.838;2.322;2023-06-22T04:28:11;22.30;37.20
820;DHT22;392;48.838;2.322;2023-06-22T04:30:40;22.30;37.90
820;DHT22;392;48.838;2.322;2023-06-22T04:33:12;22.20;38.20
820;DHT22;392;48.838;2.322;2023-06-22T04:35:40;22.20;39.20
820;DHT22;392;48.838;2.322;2023-06-22T04:38:08;22.10;40.00
820;DHT22;392;48.838;2.322;2023-06-22T04:40:38;22.00;42.30
820;DHT22;392;48.838;2.322;2023-06-22T04:43:06;22.10;42.50
820;DHT22;392;48.838;2.322;2023-06-22T04:45:35;22.20;42.30
820;DHT22;392;48.838;2.322;2023-06-22T04:48:05;22.30;42.90
820;DHT22;392;48.838;2.322;2023-06-22T04:50:34;22.30;42.90
820;DHT22;392;48.838;2.322;2023-06-22T04:53:01;22.10;43.30
820;DHT22;392;48.838;2.322;2023-06-22T04:55:31;21.90;45.00
820;DHT22;392;48.838;2.322;2023-06-22T04:57:59;21.70;47.60
820;DHT22;392;48.838;2.322;2023-06-22T05:00:31;21.50;49.60
820;DHT22;392;48.838;2.322;2023-06-22T05:02:58;21.30;51.30
820;DHT22;392;48.838;2.322;2023-06-22T05:05:28;21.20;53.40
820;DHT22;392;48.838;2.322;2023-06-22T05:07:56;21.10;55.10
820;DHT22;392;48.838;2.322;2023-06-22T05:10:26;21.10;55.90
820;DHT22;392;48.838;2.322;2023-06-22T05:12:53;21.10;54.60
820;DHT22;392;48.838;2.322;2023-06-22T05:15:20;21.20;55.10
820;DHT22;392;48.838;2.322;2023-06-22T05:17:52;21.10;55.90
820;DHT22;392;48.838;2.322;2023-06-22T05:20:19;21.00;56.90
820;DHT22;392;48.838;2.322;2023-06-22T05:22:49;20.80;58.70
820;DHT22;392;48.838;2.322;2023-06-22T05:25:16;20.70;60.40
820;DHT22;392;48.838;2.322;2023-06-22T05:27:43;20.70;61.90
820;DHT22;392;48.838;2.322;2023-06-22T05:30:12;20.60;62.60
820;DHT22;392;48.838;2.322;2023-06-22T05:32:39;20.70;63.50
820;DHT22;392;48.838;2.322;2023-06-22T05:35:07;20.70;63.70
820;DHT22;392;48.838;2.322;2023-06-22T05:37:34;20.80;63.60
820;DHT22;392;48.838;2.322;2023-06-22T05:40:05;21.00;63.80
820;DHT22;392;48.838;2.322;2023-06-22T05:42:33;21.10;62.40
820;DHT22;392;48.838;2.322;2023-06-22T05:45:00;21.20;60.70
820;DHT22;392;48.838;2.322;2023-06-22T05:47:28;21.10;60.20
820;DHT22;392;48.838;2.322;2023-06-22T05:49:55;21.10;62.80
820;DHT22;392;48.838;2.322;2023-06-22T05:52:22;21.10;63.80
820;DHT22;392;48.838;2.322;2023-06-22T05:54:49;21.10;62.90
820;DHT22;392;48.838;2.322;2023-06-22T05:57:18;21.10;64.40
820;DHT22;392;48.838;2.322;2023-06-22T05:59:47;21.00;66.70
820;DHT22;392;48.838;2.322;2023-06-22T06:02:15;21.00;67.50
820;DHT22;392;48.838;2.322;2023-06-22T06:04:42;20.90;70.10
820;DHT22;392;48.838;2.322;2023-06-22T06:07:09;20.80;71.60
820;DHT22;392;48.838;2.322;2023-06-22T06:09:37;20.70;74.00
820;DHT22;392;48.838;2.322;2023-06-22T06:12:04;20.60;75.80
820;DHT22;392;48.838;2.322;2023-06-22T06:14:33;20.50;76.60
820;DHT22;392;48.838;2.322;2023-06-22T06:17:01;20.50;75.70
820;DHT22;392;48.838;2.322;2023-06-22T06:19:28;20.40;75.90
820;DHT22;392;48.838;2.322;2023-06-22T06:21:55;20.30;80.20
820;DHT22;392;48.838;2.322;2023-06-22T06:24:22;20.40;81.00
820;DHT22;392;48.838;2.322;2023-06-22T06:26:50;20.40;81.60
820;DHT22;392;48.838;2.322;2023-06-22T06:29:17;20.50;80.90
820;DHT22;392;48.838;2.322;2023-06-22T06:31:45;20.40;76.30
820;DHT22;392;48.838;2.322;2023-06-22T06:34:13;20.40;81.60
820;DHT22;392;48.838;2.322;2023-06-22T06:36:41;20.20;80.90
820;DHT22;392;48.838;2.322;2023-06-22T06:39:08;20.20;85.30
820;DHT22;392;48.838;2.322;2023-06-22T06:41:36;20.30;85.30
820;DHT22;392;48.838;2.322;2023-06-22T06:44:03;20.20;83.00
820;DHT22;392;48.838;2.322;2023-06-22T06:46:30;20.10;86.40
820;DHT22;392;48.838;2.322;2023-06-22T06:48:59;20.10;85.70
820;DHT22;392;48.838;2.322;2023-06-22T06:51:26;19.90;85.80
820;DHT22;392;48.838;2.322;2023-06-22T06:53:54;19.70;88.30
820;DHT22;392;48.838;2.322;2023-06-22T06:56:21;19.70;91.10
820;DHT22;392;48.838;2.322;2023-06-22T06:58:50;19.80;92.40
820;DHT22;392;48.838;2.322;2023-06-22T07:01:18;19.80;91.20
820;DHT22;392;48.838;2.322;2023-06-22T07:03:45;19.70;91.10
820;DHT22;392;48.838;2.322;2023-06-22T07:06:14;19.90;92.80
820;DHT22;392;48.838;2.322;2023-06-22T07:08:42;20.00;92.00
820;DHT22;392;48.838;2.322;2023-06-22T07:11:09;20.20;91.50
820;DHT22;392;48.838;2.322;2023-06-22T07:13:37;20.30;90.90
820;DHT22;392;48.838;2.322;2023-06-22T07:16:04;20.30;88.50
820;DHT22;392;48.838;2.322;2023-06-22T07:18:32;20.10;88.00
820;DHT22;392;48.838;2.322;2023-06-22T07:20:59;20.00;90.30
820;DHT22;392;48.838;2.322;2023-06-22T07:23:27;19.90;91.10
820;DHT22;392;48.838;2.322;2023-06-22T07:25:55;19.80;91.30
820;DHT22;392;48.838;2.322;2023-06-22T07:28:22;19.70;91.80
820;DHT22;392;48.838;2.322;2023-06-22T07:30:49;19.60;92.40
820;DHT22;392;48.838;2.322;2023-06-22T07:33:17;19.50;93.10
820;DHT22;392;48.838;2.322;2023-06-22T07:35:44;19.30;93.20
820;DHT22;392;48.838;2.322;2023-06-22T07:38:13;19.30;93.60
820;DHT22;392;48.838;2.322;2023-06-22T07:40:42;19.20;94.30
820;DHT22;392;48.838;2.322;2023-06-22T07:43:10;19.40;96.70
820;DHT22;392;48.838;2.322;2023-06-22T07:45:38;19.80;98.10
820;DHT22;392;48.838;2.322;2023-06-22T07:48:06;19.90;95.80
820;DHT22;392;48.838;2.322;2023-06-22T07:50:33;20.20;95.80
820;DHT22;392;48.838;2.322;2023-06-22T07:53:01;20.70;91.60
820;DHT22;392;48.838;2.322;2023-06-22T07:55:28;20.90;85.80
820;DHT22;392;48.838;2.322;2023-06-22T07:57:56;21.00;82.80
820;DHT22;392;48.838;2.322;2023-06-22T08:00:24;20.90;80.70
820;DHT22;392;48.838;2.322;2023-06-22T08:02:51;20.70;82.20
820;DHT22;392;48.838;2.322;2023-06-22T08:05:19;21.00;85.70
820;DHT22;392;48.838;2.322;2023-06-22T08:07:46;21.40;80.50
820;DHT22;392;48.838;2.322;2023-06-22T08:10:14;21.60;74.30
820;DHT22;392;48.838;2.322;2023-06-22T08:12:41;21.90;70.70
820;DHT22;392;48.838;2.322;2023-06-22T08:15:10;22.10;67.40
820;DHT22;392;48.838;2.322;2023-06-22T08:17:38;22.20;67.00
820;DHT22;392;48.838;2.322;2023-06-22T08:20:06;22.00;68.40
820;DHT22;392;48.838;2.322;2023-06-22T08:22:37;22.00;67.80
820;DHT22;392;48.838;2.322;2023-06-22T08:25:06;22.00;68.40
820;DHT22;392;48.838;2.322;2023-06-22T08:27:34;21.70;69.60
820;DHT22;392;48.838;2.322;2023-06-22T08:30:02;21.40;73.50
820;DHT22;392;48.838;2.322;2023-06-22T08:32:31;21.20;75.40
820;DHT22;392;48.838;2.322;2023-06-22T08:34:59;20.90;77.60
820;DHT22;392;48.838;2.322;2023-06-22T08:37:26;20.80;80.70
820;DHT22;392;48.838;2.322;2023-06-22T08:39:58;20.70;83.60
820;DHT22;392;48.838;2.322;2023-06-22T08:42:26;20.70;85.60
820;DHT22;392;48.838;2.322;2023-06-22T08:44:54;20.80;87.40
820;DHT22;392;48.838;2.322;2023-06-22T08:47:21;20.90;86.90
820;DHT22;392;48.838;2.322;2023-06-22T08:49:50;21.00;84.20
820;DHT22;392;48.838;2.322;2023-06-22T08:52:18;21.00;82.10
820;DHT22;392;48.838;2.322;2023-06-22T08:54:45;20.90;82.80
820;DHT22;392;48.838;2.322;2023-06-22T08:57:13;21.10;83.70
820;DHT22;392;48.838;2.322;2023-06-22T08:59:40;21.20;83.50
820;DHT22;392;48.838;2.322;2023-06-22T09:02:07;21.40;80.30
820;DHT22;392;48.838;2.322;2023-06-22T09:04:34;21.40;78.00
820;DHT22;392;48.838;2.322;2023-06-22T09:07:04;21.30;78.60
820;DHT22;392;48.838;2.322;2023-06-22T09:09:32;21.20;80.90
820;DHT22;392;48.838;2.322;2023-06-22T09:11:59;21.20;80.60
820;DHT22;392;48.838;2.322;2023-06-22T09:14:26;21.30;80.60
820;DHT22;392;48.838;2.322;2023-06-22T09:16:54;21.30;79.00
820;DHT22;392;48.838;2.322;2023-06-22T09:19:21;21.30;78.60
820;DHT22;392;48.838;2.322;2023-06-22T09:21:48;21.30;77.90
820;DHT22;392;48.838;2.322;2023-06-22T09:24:17;21.30;77.30
820;DHT22;392;48.838;2.322;2023-06-22T09:26:44;21.20;79.40
820;DHT22;392;48.838;2.322;2023-06-22T09:29:12;21.30;79.90
820;DHT22;392;48.838;2.322;2023-06-22T09:31:39;21.30;78.50
820;DHT22;392;48.838;2.322;2023-06-22T09:34:06;21.30;75.40
820;DHT22;392;48.838;2.322;2023-06-22T09:36:33;21.20;75.80
820;DHT22;392;48.838;2.322;2023-06-22T09:39:01;21.20;77.80
820;DHT22;392;48.838;2.322;2023-06-22T09:41:33;21.20;76.10
820;DHT22;392;48.838;2.322;2023-06-22T09:44:00;21.30;75.50
820;DHT22;392;48.838;2.322;2023-06-22T09:46:28;21.30;76.00
820;DHT22;392;48.838;2.322;2023-06-22T09:48:55;21.30;75.00
820;DHT22;392;48.838;2.322;2023-06-22T09:51:22;21.40;73.50
820;DHT22;392;48.838;2.322;2023-06-22T09:53:50;21.40;75.00
820;DHT22;392;48.838;2.322;2023-06-22T09:56:17;21.50;72.70
820;DHT22;392;48.838;2.322;2023-06-22T09:58:46;21.40;72.40
820;DHT22;392;48.838;2.322;2023-06-22T10:01:16;21.40;72.80
820;DHT22;392;48.838;2.322;2023-06-22T10:03:43;21.40;73.50
820;DHT22;392;48.838;2.322;2023-06-22T10:06:10;21.50;73.50
820;DHT22;392;48.838;2.322;2023-06-22T10:08:38;21.60;71.00
820;DHT22;392;48.838;2.322;2023-06-22T10:11:06;21.70;70.80
820;DHT22;392;48.838;2.322;2023-06-22T10:13:33;21.70;69.30
820;DHT22;392;48.838;2.322;2023-06-22T10:16:02;21.90;70.70
820;DHT22;392;48.838;2.322;2023-06-22T10:18:29;22.10;67.50
820;DHT22;392;48.838;2.322;2023-06-22T10:20:57;22.30;66.10
820;DHT22;392;48.838;2.322;2023-06-22T10:23:24;22.50;62.10
820;DHT22;392;48.838;2.322;2023-06-22T10:25:52;22.50;63.30
820;DHT22;392;48.838;2.322;2023-06-22T10:28:19;22.60;60.50
820;DHT22;392;48.838;2.322;2023-06-22T10:30:46;22.80;58.10
820;DHT22;392;48.838;2.322;2023-06-22T10:33:15;22.90;58.00
820;DHT22;392;48.838;2.322;2023-06-22T10:35:42;23.00;57.40
820;DHT22;392;48.838;2.322;2023-06-22T10:38:10;23.00;53.30
820;DHT22;392;48.838;2.322;2023-06-22T10:40:37;22.90;55.70
820;DHT22;392;48.838;2.322;2023-06-22T10:43:05;22.80;57.30
820;DHT22;392;48.838;2.322;2023-06-22T10:45:32;22.90;57.70
820;DHT22;392;48.838;2.322;2023-06-22T10:47:59;23.10;53.60
820;DHT22;392;48.838;2.322;2023-06-22T10:50:29;23.30;55.20
820;DHT22;392;48.838;2.322;2023-06-22T10:52:57;23.60;50.40
820;DHT22;392;48.838;2.322;2023-06-22T10:55:24;23.50;50.80
820;DHT22;392;48.838;2.322;2023-06-22T10:57:52;23.60;52.50
820;DHT22;392;48.838;2.322;2023-06-22T11:00:19;23.70;47.80
820;DHT22;392;48.838;2.322;2023-06-22T11:02:48;23.80;50.70
820;DHT22;392;48.838;2.322;2023-06-22T11:05:16;24.00;48.80
820;DHT22;392;48.838;2.322;2023-06-22T11:07:44;24.20;45.90
820;DHT22;392;48.838;2.322;2023-06-22T11:10:12;24.40;45.20
820;DHT22;392;48.838;2.322;2023-06-22T11:12:40;24.80;43.40
820;DHT22;392;48.838;2.322;2023-06-22T11:15:08;24.90;42.60
820;DHT22;392;48.838;2.322;2023-06-22T11:17:36;25.10;40.70
820;DHT22;392;48.838;2.322;2023-06-22T11:20:04;25.20;37.60
820;DHT22;392;48.838;2.322;2023-06-22T11:22:37;25.10;37.60
820;DHT22;392;48.838;2.322;2023-06-22T11:25:07;25.00;38.50
820;DHT22;392;48.838;2.322;2023-06-22T11:27:36;25.00;40.60
820;DHT22;392;48.838;2.322;2023-06-22T11:30:05;25.00;39.10
820;DHT22;392;48.838;2.322;2023-06-22T11:32:33;24.90;37.40
820;DHT22;392;48.838;2.322;2023-06-22T11:35:01;24.60;38.50
820;DHT22;392;48.838;2.322;2023-06-22T11:37:28;24.30;40.70
820;DHT22;392;48.838;2.322;2023-06-22T11:39:55;24.20;41.50
820;DHT22;392;48.838;2.322;2023-06-22T11:42:25;24.20;41.00
820;DHT22;392;48.838;2.322;2023-06-22T11:44:54;24.20;42.30
820;DHT22;392;48.838;2.322;2023-06-22T11:47:21;24.30;43.20
820;DHT22;392;48.838;2.322;2023-06-22T11:49:48;24.30;41.10
820;DHT22;392;48.838;2.322;2023-06-22T11:52:15;24.30;41.00
820;DHT22;392;48.838;2.322;2023-06-22T11:54:43;24.20;41.00
820;DHT22;392;48.838;2.322;2023-06-22T11:57:11;24.10;41.80
820;DHT22;392;48.838;2.322;2023-06-22T11:59:40;24.20;43.50
820;DHT22;392;48.838;2.322;2023-06-22T12:02:07;24.30;39.50
820;DHT22;392;48.838;2.322;2023-06-22T12:04:35;24.40;40.20
820;DHT22;392;48.838;2.322;2023-06-22T12:07:03;24.50;38.80
820;DHT22;392;48.838;2.322;2023-06-22T12:09:30;24.60;39.80
820;DHT22;392;48.838;2.322;2023-06-22T12:11:58;24.80;39.00
820;DHT22;392;48.838;2.322;2023-06-22T12:14:26;25.10;37.30
820;DHT22;392;48.838;2.322;2023-06-22T12:16:54;25.40;34.70
820;DHT22;392;48.838;2.322;2023-06-22T12:19:21;25.80;33.60
820;DHT22;392;48.838;2.322;2023-06-22T12:21:49;26.30;31.90
820;DHT22;392;48.838;2.322;2023-06-22T12:24:16;26.60;30.60
820;DHT22;392;48.838;2.322;2023-06-22T12:26:43;26.80;30.10
820;DHT22;392;48.838;2.322;2023-06-22T12:29:10;26.90;28.00
820;DHT22;392;48.838;2.322;2023-06-22T12:31:38;26.90;30.10
820;DHT22;392;48.838;2.322;2023-06-22T12:34:06;26.80;28.20
820;DHT22;392;48.838;2.322;2023-06-22T12:36:34;26.70;28.60
820;DHT22;392;48.838;2.322;2023-06-22T12:39:01;26.60;30.00
820;DHT22;392;48.838;2.322;2023-06-22T12:41:28;26.60;30.60
820;DHT22;392;48.838;2.322;2023-06-22T12:43:55;26.70;30.80
820;DHT22;392;48.838;2.322;2023-06-22T12:46:22;26.70;28.60
820;DHT22;392;48.838;2.322;2023-06-22T12:48:50;26.40;28.60
820;DHT22;392;48.838;2.322;2023-06-22T12:51:22;26.10;30.20
820;DHT22;392;48.838;2.322;2023-06-22T12:53:49;25.90;31.70
820;DHT22;392;48.838;2.322;2023-06-22T12:56:17;25.80;31.10
820;DHT22;392;48.838;2.322;2023-06-22T12:58:44;25.70;33.40
820;DHT22;392;48.838;2.322;2023-06-22T13:01:11;25.50;35.40
820;DHT22;392;48.838;2.322;2023-06-22T13:03:39;25.40;37.00
820;DHT22;392;48.838;2.322;2023-06-22T13:06:06;25.40;36.20
820;DHT22;392;48.838;2.322;2023-06-22T13:08:34;25.50;36.80
820;DHT22;392;48.838;2.322;2023-06-22T13:11:02;25.40;35.00
820;DHT22;392;48.838;2.322;2023-06-22T13:13:29;25.40;37.90
820;DHT22;392;48.838;2.322;2023-06-22T13:15:56;25.50;38.90
820;DHT22;392;48.838;2.322;2023-06-22T13:18:24;25.50;36.80
820;DHT22;392;48.838;2.322;2023-06-22T13:20:51;25.50;34.50
820;DHT22;392;48.838;2.322;2023-06-22T13:23:20;25.50;39.20
820;DHT22;392;48.838;2.322;2023-06-22T13:25:50;25.40;33.50
820;DHT22;392;48.838;2.322;2023-06-22T13:28:17;25.40;35.70
820;DHT22;392;48.838;2.322;2023-06-22T13:30:44;25.40;38.80
820;DHT22;392;48.838;2.322;2023-06-22T13:33:13;25.40;36.30
820;DHT22;392;48.838;2.322;2023-06-22T13:35:40;25.30;38.30
820;DHT22;392;48.838;2.322;2023-06-22T13:38:08;25.20;38.90
820;DHT22;392;48.838;2.322;2023-06-22T13:40:36;25.20;41.60
820;DHT22;392;48.838;2.322;2023-06-22T13:43:05;25.20;42.20
820;DHT22;392;48.838;2.322;2023-06-22T13:45:33;25.30;40.70
820;DHT22;392;48.838;2.322;2023-06-22T13:48:00;25.30;41.00
820;DHT22;392;48.838;2.322;2023-06-22T13:50:28;25.30;40.80
820;DHT22;392;48.838;2.322;2023-06-22T13:52:55;25.10;38.30
820;DHT22;392;48.838;2.322;2023-06-22T13:55:23;25.00;36.90
820;DHT22;392;48.838;2.322;2023-06-22T13:57:50;24.80;35.70
820;DHT22;392;48.838;2.322;2023-06-22T14:00:19;24.60;37.20
820;DHT22;392;48.838;2.322;2023-06-22T14:02:47;24.50;37.10
820;DHT22;392;48.838;2.322;2023-06-22T14:05:14;24.50;38.00
820;DHT22;392;48.838;2.322;2023-06-22T14:07:41;24.70;39.30
820;DHT22;392;48.838;2.322;2023-06-22T14:10:09;24.90;37.10
820;DHT22;392;48.838;2.322;2023-06-22T14:12:36;24.90;35.00
820;DHT22;392;48.838;2.322;2023-06-22T14:15:05;24.90;34.20
820;DHT22;392;48.838;2.322;2023-06-22T14:17:34;25.10;36.50
820;DHT22;392;48.838;2.322;2023-06-22T14:20:02;25.20;36.10
820;DHT22;392;48.838;2.322;2023-06-22T14:22:31;25.20;35.60
820;DHT22;392;48.838;2.322;2023-06-22T14:24:58;25.30;34.30
820;DHT22;392;48.838;2.322;2023-06-22T14:27:25;25.30;32.60
820;DHT22;392;48.838;2.322;2023-06-22T14:29:52;25.20;32.30
820;DHT22;392;48.838;2.322;2023-06-22T14:32:20;25.20;36.20
820;DHT22;392;48.838;2.322;2023-06-22T14:34:49;25.30;33.30
820;DHT22;392;48.838;2.322;2023-06-22T14:37:16;25.20;32.00
820;DHT22;392;48.838;2.322;2023-06-22T14:39:44;25.00;34.00
820;DHT22;392;48.838;2.322;2023-06-22T14:42:11;25.00;34.40
820;DHT22;392;48.838;2.322;2023-06-22T14:44:38;25.00;33.00
820;DHT22;392;48.838;2.322;2023-06-22T14:47:06;25.00;35.30
820;DHT22;392;48.838;2.322;2023-06-22T14:49:34;25.10;32.90
820;DHT22;392;48.838;2.322;2023-06-22T14:52:04;25.10;32.30
820;DHT22;392;48.838;2.322;2023-06-22T14:54:32;25.00;31.90
820;DHT22;392;48.838;2.322;2023-06-22T14:56:59;25.00;31.50
820;DHT22;392;48.838;2.322;2023-06-22T14:59:26;25.10;33.30
820;DHT22;392;48.838;2.322;2023-06-22T15:01:54;25.20;31.30
820;DHT22;392;48.838;2.322;2023-06-22T15:04:21;25.30;30.10
820;DHT22;392;48.838;2.322;2023-06-22T15:06:48;25.30;29.80
820;DHT22;392;48.838;2.322;2023-06-22T15:09:17;25.20;29.50
820;DHT22;392;48.838;2.322;2023-06-22T15:11:44;25.20;31.10
820;DHT22;392;48.838;2.322;2023-06-22T15:14:13;25.20;29.70
820;DHT22;392;48.838;2.322;2023-06-22T15:16:41;25.00;29.80
820;DHT22;392;48.838;2.322;2023-06-22T15:19:08;24.80;29.90
820;DHT22;392;48.838;2.322;2023-06-22T15:21:38;24.80;31.00
820;DHT22;392;48.838;2.322;2023-06-22T15:24:05;24.90;30.30
820;DHT22;392;48.838;2.322;2023-06-22T15:26:34;25.00;32.20
820;DHT22;392;48.838;2.322;2023-06-22T15:29:01;25.20;31.90
820;DHT22;392;48.838;2.322;2023-06-22T15:31:29;25.40;29.80
820;DHT22;392;48.838;2.322;2023-06-22T15:33:56;25.40;28.60
820;DHT22;392;48.838;2.322;2023-06-22T15:36:23;25.50;27.90
820;DHT22;392;48.838;2.322;2023-06-22T15:38:50;25.60;27.70
820;DHT22;392;48.838;2.322;2023-06-22T15:41:18;25.70;27.70
820;DHT22;392;48.838;2.322;2023-06-22T15:43:46;25.80;28.80
820;DHT22;392;48.838;2.322;2023-06-22T15:46:14;25.90;27.40
820;DHT22;392;48.838;2.322;2023-06-22T15:48:43;25.90;28.00
820;DHT22;392;48.838;2.322;2023-06-22T15:51:10;25.80;26.30
820;DHT22;392;48.838;2.322;2023-06-22T15:53:37;25.80;27.20
820;DHT22;392;48.838;2.322;2023-06-22T15:56:05;25.90;27.60
820;DHT22;392;48.838;2.322;2023-06-22T15:58:35;26.10;27.30
820;DHT22;392;48.838;2.322;2023-06-22T16:01:04;26.20;25.80
820;DHT22;392;48.838;2.322;2023-06-22T16:03:31;26.20;26.90
820;DHT22;392;48.838;2.322;2023-06-22T16:05:58;26.20;25.10
820;DHT22;392;48.838;2.322;2023-06-22T16:08:26;26.20;26.40
820;DHT22;392;48.838;2.322;2023-06-22T16:10:56;26.30;27.10
820;DHT22;392;48.838;2.322;2023-06-22T16:13:23;26.40;25.90
820;DHT22;392;48.838;2.322;2023-06-22T16:15:50;26.50;24.20
820;DHT22;392;48.838;2.322;2023-06-22T16:18:19;26.50;25.00
820;DHT22;392;48.838;2.322;2023-06-22T16:20:47;26.50;24.40
820;DHT22;392;48.838;2.322;2023-06-22T16:23:14;26.50;23.70
820;DHT22;392;48.838;2.322;2023-06-22T16:25:42;26.50;25.20
820;DHT22;392;48.838;2.322;2023-06-22T16:28:10;26.40;24.20
820;DHT22;392;48.838;2.322;2023-06-22T16:30:37;26.20;24.10
820;DHT22;392;48.838;2.322;2023-06-22T16:33:04;26.20;23.00
820;DHT22;392;48.838;2.322;2023-06-22T16:35:33;26.20;23.70
820;DHT22;392;48.838;2.322;2023-06-22T16:38:02;26.30;23.00
820;DHT22;392;48.838;2.322;2023-06-22T16:40:29;26.50;22.70
820;DHT22;392;48.838;2.322;2023-06-22T16:42:57;26.70;20.50